sensor_id;sensor_type;location;lat;lon;timestamp;noise_LAeq;noise_LA_min;noise_LA_max;noise_LA01;noise_LA95
43512;Laerm;34054;52.100;5.116;2023-06-10T00:00:18;32.17;29.52;34.27;;
43512;Laerm;34054;52.100;5.116;2023-06-10T00:00:51;32.32;29.69;36.72;;
43512;Laerm;34054;52.100;5.116;2023-06-10T00:01:22;32.32;29.62;34.19;;
43512;Laerm;34054;52.100;5.116;2023-06-10T00:01:54;32.26;29.59;34.86;;
43512;Laerm;34054;52.100;5.116;2023-06-10T00:02:28;32.06;29.80;34.15;;
43512;Laerm;34054;52.100;5.116;2023-06-10T00:03:01;32.18;29.56;34.22;;
43512;Laerm;34054;52.100;5.116;2023-06-10T00:03:32;32.22;29.52;34.76;;
43512;Laerm;34054;52.100;5.116;2023-06-10T00:04:04;32.15;29.57;34.21;;
43512;Laerm;34054;52.100;5.116;2023-06-10T00:04:36;32.12;29.60;34.47;;
43512;Laerm;34054;52.100;5.116;2023-06-10T00:05:08;32.16;29.63;34.25;;
43512;Laerm;34054;52.100;5.116;2023-06-10T00:05:39;32.19;29.47;34.57;;
43512;Laerm;34054;52.100;5.116;2023-06-10T00:06:10;32.15;29.64;34.13;;
43512;Laerm;34054;52.100;5.116;2023-06-10T00:06:43;32.10;29.44;34.24;;
43512;Laerm;34054;52.100;5.116;2023-06-10T00:07:14;32.09;29.63;34.32;;
43512;Laerm;34054;52.100;5.116;2023-06-10T00:07:47;32.19;29.34;34.16;;
43512;Laerm;34054;52.100;5.116;2023-06-10T00:08:20;32.73;29.60;43.63;;
43512;Laerm;34054;52.100;5.116;2023-06-10T00:08:51;32.19;29.48;34.10;;
43512;Laerm;34054;52.100;5.116;2023-06-10T00:09:23;33.18;29.69;39.31;;
43512;Laerm;34054;52.100;5.116;2023-06-10T00:09:55;32.07;29.33;33.97;;
43512;Laerm;34054;52.100;5.116;2023-06-10T00:10:26;32.12;29.41;34.17;;
43512;Laerm;34054;52.100;5.116;2023-06-10T00:10:58;32.42;29.77;36.34;;
43512;Laerm;34054;52.100;5.116;2023-06-10T00:11:30;32.05;29.43;34.02;;
43512;Laerm;34054;52.100;5.116;2023-06-10T00:12:02;32.09;29.55;33.92;;
43512;Laerm;34054;52.100;5.116;2023-06-10T00:12:34;32.10;29.40;34.58;;
43512;Laerm;34054;52.100;5.116;2023-06-10T00:13:07;31.96;29.50;34.19;;
43512;Laerm;34054;52.100;5.116;2023-06-10T00:13:39;32.08;29.50;33.93;;
43512;Laerm;34054;52.100;5.116;2023-06-10T00:14:11;32.12;29.69;34.31;;
43512;Laerm;34054;52.100;5.116;2023-06-10T00:14:43;32.33;29.39;36.19;;
43512;Laerm;34054;52.100;5.116;2023-06-10T00:15:14;32.20;29.58;34.48;;
43512;Laerm;34054;52.100;5.116;2023-06-10T00:15:45;32.30;29.54;34.56;;
43512;Laerm;34054;52.100;5.116;2023-06-10T00:16:17;32.13;29.41;34.39;;
43512;Laerm;34054;52.100;5.116;2023-06-10T00:16:49;32.06;29.57;34.04;;
43512;Laerm;34054;52.100;5.116;2023-06-10T00:17:20;32.10;29.28;34.46;;
43512;Laerm;34054;52.100;5.116;2023-06-10T00:17:54;32.09;29.59;35.12;;
43512;Laerm;34054;52.100;5.116;2023-06-10T00:18:26;32.10;29.49;34.27;;
43512;Laerm;34054;52.100;5.116;2023-06-10T00:19:02;31.90;29.36;34.48;;
43512;Laerm;34054;52.100;5.116;2023-06-10T00:19:34;32.08;29.43;34.44;;
43512;Laerm;34054;52.100;5.116;2023-06-10T00:20:07;32.02;29.65;34.28;;
43512;Laerm;34054;52.100;5.116;2023-06-10T00:20:41;31.88;29.22;33.96;;
43512;Laerm;34054;52.100;5.116;2023-06-10T00:21:13;31.99;29.42;33.96;;
43512;Laerm;34054;52.100;5.116;2023-06-10T00:21:44;32.79;29.53;36.46;;
43512;Laerm;34054;52.100;5.116;2023-06-10T00:22:16;32.15;29.44;34.48;;
43512;Laerm;34054;52.100;5.116;2023-06-10T00:22:48;32.46;29.79;34.66;;
43512;Laerm;34054;52.100;5.116;2023-06-10T00:23:21;32.49;29.88;34.71;;
43512;Laerm;34054;52.100;5.116;2023-06-10T00:23:56;32.39;29.55;39.35;;
43512;Laerm;34054;52.100;5.116;2023-06-10T00:24:27;32.24;29.85;34.46;;
43512;Laerm;34054;52.100;5.116;2023-06-10T00:24:58;32.11;29.62;34.05;;
43512;Laerm;34054;52.100;5.116;2023-06-10T00:25:30;32.08;29.49;34.20;;
43512;Laerm;34054;52.100;5.116;2023-06-10T00:26:01;32.18;29.78;36.08;;
43512;Laerm;34054;52.100;5.116;2023-06-10T00:26:33;32.57;30.04;35.61;;
43512;Laerm;34054;52.100;5.116;2023-06-10T00:27:06;32.15;29.65;34.26;;
43512;Laerm;34054;52.100;5.116;2023-06-10T00:27:38;32.24;29.91;36.22;;
43512;Laerm;34054;52.100;5.116;2023-06-10T00:28:09;32.38;29.41;34.48;;
43512;Laerm;34054;52.100;5.116;2023-06-10T00:28:41;32.10;29.46;34.13;;
43512;Laerm;34054;52.100;5.116;2023-06-10T00:29:12;32.27;29.47;34.94;;
43512;Laerm;34054;52.100;5.116;2023-06-10T00:29:44;32.19;29.50;34.29;;
43512;Laerm;34054;52.100;5.116;2023-06-10T00:30:16;32.92;29.58;36.69;;
43512;Laerm;34054;52.100;5.116;2023-06-10T00:30:48;32.54;29.87;35.96;;
43512;Laerm;34054;52.100;5.116;2023-06-10T00:31:19;32.18;29.53;34.37;;
43512;Laerm;34054;52.100;5.116;2023-06-10T00:31:51;32.46;29.66;42.60;;
43512;Laerm;34054;52.100;5.116;2023-06-10T00:32:24;32.15;29.61;34.00;;
43512;Laerm;34054;52.100;5.116;2023-06-10T00:32:55;32.23;29.55;34.84;;
43512;Laerm;34054;52.100;5.116;2023-06-10T00:33:26;32.67;29.91;36.13;;
43512;Laerm;34054;52.100;5.116;2023-06-10T00:33:59;32.12;29.60;38.09;;
43512;Laerm;34054;52.100;5.116;2023-06-10T00:34:30;32.27;29.69;36.01;;
43512;Laerm;34054;52.100;5.116;2023-06-10T00:35:01;32.17;29.63;34.15;;
43512;Laerm;34054;52.100;5.116;2023-06-10T00:35:34;32.32;29.89;37.31;;
43512;Laerm;34054;52.100;5.116;2023-06-10T00:36:05;32.29;29.80;34.08;;
43512;Laerm;34054;52.100;5.116;2023-06-10T00:36:36;32.22;29.19;34.52;;
43512;Laerm;34054;52.100;5.116;2023-06-10T00:37:08;32.09;29.82;34.17;;
43512;Laerm;34054;52.100;5.116;2023-06-10T00:37:40;32.17;29.76;41.10;;
43512;Laerm;34054;52.100;5.116;2023-06-10T00:38:13;32.03;29.64;33.92;;
43512;Laerm;34054;52.100;5.116;2023-06-10T00:38:45;32.08;29.51;39.08;;
43512;Laerm;34054;52.100;5.116;2023-06-10T00:39:17;32.19;29.69;34.25;;
43512;Laerm;34054;52.100;5.116;2023-06-10T00:39:49;32.25;29.93;34.65;;
43512;Laerm;34054;52.100;5.116;2023-06-10T00:40:20;32.20;29.81;34.01;;
43512;Laerm;34054;52.100;5.116;2023-06-10T00:40:52;32.08;29.67;34.02;;
43512;Laerm;34054;52.100;5.116;2023-06-10T00:41:23;32.09;29.41;34.15;;
43512;Laerm;34054;52.100;5.116;2023-06-10T00:41:55;32.24;29.64;34.28;;
43512;Laerm;34054;52.100;5.116;2023-06-10T00:42:27;32.26;29.87;34.20;;
43512;Laerm;34054;52.100;5.116;2023-06-10T00:42:58;32.21;29.53;34.28;;
43512;Laerm;34054;52.100;5.116;2023-06-10T00:43:29;32.20;29.76;34.36;;
43512;Laerm;34054;52.100;5.116;2023-06-10T00:44:00;32.25;29.64;34.27;;
43512;Laerm;34054;52.100;5.116;2023-06-10T00:44:33;32.09;29.78;33.96;;
43512;Laerm;34054;52.100;5.116;2023-06-10T00:45:05;32.10;29.48;34.32;;
43512;Laerm;34054;52.100;5.116;2023-06-10T00:45:36;32.09;29.66;34.16;;
43512;Laerm;34054;52.100;5.116;2023-06-10T00:46:09;32.04;29.28;34.13;;
43512;Laerm;34054;52.100;5.116;2023-06-10T00:46:40;32.11;29.66;34.21;;
43512;Laerm;34054;52.100;5.116;2023-06-10T00:47:12;32.16;29.43;34.32;;
43512;Laerm;34054;52.100;5.116;2023-06-10T00:47:44;32.21;29.52;34.33;;
43512;Laerm;34054;52.100;5.116;2023-06-10T00:48:15;32.27;29.76;34.19;;
43512;Laerm;34054;52.100;5.116;2023-06-10T00:48:46;32.17;29.70;34.00;;
43512;Laerm;34054;52.100;5.116;2023-06-10T00:49:19;32.23;29.93;34.37;;
43512;Laerm;34054;52.100;5.116;2023-06-10T00:49:50;32.11;29.53;34.20;;
43512;Laerm;34054;52.100;5.116;2023-06-10T00:50:21;32.14;29.49;34.19;;
43512;Laerm;34054;52.100;5.116;2023-06-10T00:50:54;32.07;29.29;34.23;;
43512;Laerm;34054;52.100;5.116;2023-06-10T00:51:25;32.92;29.89;36.75;;
43512;Laerm;34054;52.100;5.116;2023-06-10T00:51:58;32.41;29.49;34.71;;
43512;Laerm;34054;52.100;5.116;2023-06-10T00:52:29;32.28;29.57;36.97;;
43512;Laerm;34054;52.100;5.116;2023-06-10T00:53:01;32.15;29.92;34.80;;
43512;Laerm;34054;52.100;5.116;2023-06-10T00:53:33;32.19;29.84;34.37;;
43512;Laerm;34054;52.100;5.116;2023-06-10T00:54:06;32.21;29.61;34.56;;
43512;Laerm;34054;52.100;5.116;2023-06-10T00:54:39;32.60;29.94;36.83;;
43512;Laerm;34054;52.100;5.116;2023-06-10T00:55:10;32.08;29.24;34.06;;
43512;Laerm;34054;52.100;5.116;2023-06-10T00:55:41;33.71;29.27;49.01;;
43512;Laerm;34054;52.100;5.116;2023-06-10T00:56:13;32.39;30.12;36.39;;
43512;Laerm;34054;52.100;5.116;2023-06-10T00:56:46;32.38;29.60;41.42;;
43512;Laerm;34054;52.100;5.116;2023-06-10T00:57:18;32.07;29.44;34.24;;
43512;Laerm;34054;52.100;5.116;2023-06-10T00:57:49;32.02;29.52;34.26;;
43512;Laerm;34054;52.100;5.116;2023-06-10T00:58:23;32.02;29.46;35.23;;
43512;Laerm;34054;52.100;5.116;2023-06-10T00:58:55;32.00;29.68;34.05;;
43512;Laerm;34054;52.100;5.116;2023-06-10T00:59:26;32.04;29.46;34.23;;
43512;Laerm;34054;52.100;5.116;2023-06-10T01:00:00;32.00;29.63;34.94;;
43512;Laerm;34054;52.100;5.116;2023-06-10T01:00:31;32.05;29.46;34.01;;
43512;Laerm;34054;52.100;5.116;2023-06-10T01:01:03;32.03;29.37;34.37;;
43512;Laerm;34054;52.100;5.116;2023-06-10T01:01:35;32.02;29.45;34.45;;
43512;Laerm;34054;52.100;5.116;2023-06-10T01:02:08;33.21;29.90;39.78;;
43512;Laerm;34054;52.100;5.116;2023-06-10T01:02:40;32.03;29.41;34.45;;
43512;Laerm;34054;52.100;5.116;2023-06-10T01:03:12;32.03;29.54;34.59;;
43512;Laerm;34054;52.100;5.116;2023-06-10T01:03:43;32.04;29.34;34.19;;
43512;Laerm;34054;52.100;5.116;2023-06-10T01:04:16;31.98;29.49;34.74;;
43512;Laerm;34054;52.100;5.116;2023-06-10T01:04:50;31.89;29.56;34.41;;
43512;Laerm;34054;52.100;5.116;2023-06-10T01:05:23;31.96;29.45;34.35;;
43512;Laerm;34054;52.100;5.116;2023-06-10T01:06:01;31.88;29.64;34.25;;
43512;Laerm;34054;52.100;5.116;2023-06-10T01:06:42;31.64;29.19;34.34;;
43512;Laerm;34054;52.100;5.116;2023-06-10T01:07:24;31.60;29.52;34.22;;
43512;Laerm;34054;52.100;5.116;2023-06-10T01:08:01;31.75;29.59;33.96;;
43512;Laerm;34054;52.100;5.116;2023-06-10T01:08:39;31.73;29.58;34.09;;
43512;Laerm;34054;52.100;5.116;2023-06-10T01:09:21;31.74;29.60;34.13;;
43512;Laerm;34054;52.100;5.116;2023-06-10T01:09:55;31.70;29.47;34.58;;
43512;Laerm;34054;52.100;5.116;2023-06-10T01:10:33;31.83;29.77;34.28;;
43512;Laerm;34054;52.100;5.116;2023-06-10T01:11:08;31.84;29.60;34.24;;
43512;Laerm;34054;52.100;5.116;2023-06-10T01:11:47;31.78;29.39;34.03;;
43512;Laerm;34054;52.100;5.116;2023-06-10T01:12:30;32.05;29.44;35.75;;
43512;Laerm;34054;52.100;5.116;2023-06-10T01:13:02;31.85;29.68;34.49;;
43512;Laerm;34054;52.100;5.116;2023-06-10T01:13:36;31.92;29.45;34.37;;
43512;Laerm;34054;52.100;5.116;2023-06-10T01:14:10;31.96;29.50;34.21;;
43512;Laerm;34054;52.100;5.116;2023-06-10T01:14:43;32.37;29.63;37.11;;
43512;Laerm;34054;52.100;5.116;2023-06-10T01:15:16;31.97;29.50;34.32;;
43512;Laerm;34054;52.100;5.116;2023-06-10T01:15:47;31.99;29.63;33.89;;
43512;Laerm;34054;52.100;5.116;2023-06-10T01:16:19;32.12;29.40;35.11;;
43512;Laerm;34054;52.100;5.116;2023-06-10T01:16:51;32.03;29.29;34.39;;
43512;Laerm;34054;52.100;5.116;2023-06-10T01:17:24;32.06;29.62;34.12;;
43512;Laerm;34054;52.100;5.116;2023-06-10T01:17:59;31.85;29.59;34.33;;
43512;Laerm;34054;52.100;5.116;2023-06-10T01:18:32;31.95;29.50;38.22;;
43512;Laerm;34054;52.100;5.116;2023-06-10T01:19:03;32.03;29.43;34.42;;
43512;Laerm;34054;52.100;5.116;2023-06-10T01:19:34;32.16;29.69;34.15;;
43512;Laerm;34054;52.100;5.116;2023-06-10T01:20:08;32.16;29.75;34.80;;
43512;Laerm;34054;52.100;5.116;2023-06-10T01:20:43;31.84;29.38;34.46;;
43512;Laerm;34054;52.100;5.116;2023-06-10T01:21:19;31.87;29.56;34.18;;
43512;Laerm;34054;52.100;5.116;2023-06-10T01:21:55;32.37;29.87;39.11;;
43512;Laerm;34054;52.100;5.116;2023-06-10T01:22:27;31.97;29.67;34.13;;
43512;Laerm;34054;52.100;5.116;2023-06-10T01:23:00;31.95;29.65;34.20;;
43512;Laerm;34054;52.100;5.116;2023-06-10T01:23:33;31.93;29.63;34.52;;
43512;Laerm;34054;52.100;5.116;2023-06-10T01:24:05;32.10;29.61;34.37;;
43512;Laerm;34054;52.100;5.116;2023-06-10T01:24:39;32.10;29.70;34.75;;
43512;Laerm;34054;52.100;5.116;2023-06-10T01:25:11;33.69;30.37;37.21;;
43512;Laerm;34054;52.100;5.116;2023-06-10T01:25:45;32.40;29.84;34.63;;
43512;Laerm;34054;52.100;5.116;2023-06-10T01:26:19;32.25;29.68;36.63;;
43512;Laerm;34054;52.100;5.116;2023-06-10T01:26:55;32.03;29.48;34.51;;
43512;Laerm;34054;52.100;5.116;2023-06-10T01:27:33;31.87;29.63;33.94;;
43512;Laerm;34054;52.100;5.116;2023-06-10T01:28:14;31.72;29.49;34.05;;
43512;Laerm;34054;52.100;5.116;2023-06-10T01:28:50;31.74;29.63;33.96;;
43512;Laerm;34054;52.100;5.116;2023-06-10T01:29:28;31.74;29.45;33.87;;
43512;Laerm;34054;52.100;5.116;2023-06-10T01:30:06;31.69;29.47;33.99;;
43512;Laerm;34054;52.100;5.116;2023-06-10T01:30:45;31.78;29.31;34.49;;
43512;Laerm;34054;52.100;5.116;2023-06-10T01:31:22;31.73;29.55;33.94;;
43512;Laerm;34054;52.100;5.116;2023-06-10T01:31:59;31.85;29.56;34.80;;
43512;Laerm;34054;52.100;5.116;2023-06-10T01:32:37;31.95;29.70;34.29;;
43512;Laerm;34054;52.100;5.116;2023-06-10T01:33:09;32.29;29.39;47.65;;
43512;Laerm;34054;52.100;5.116;2023-06-10T01:33:43;50.95;29.51;70.98;;
43512;Laerm;34054;52.100;5.116;2023-06-10T01:34:18;33.20;29.78;39.35;;
43512;Laerm;34054;52.100;5.116;2023-06-10T01:34:50;33.10;29.60;36.46;;
43512;Laerm;34054;52.100;5.116;2023-06-10T01:35:24;43.17;32.69;52.44;;
43512;Laerm;34054;52.100;5.116;2023-06-10T01:35:57;34.06;30.50;39.66;;
43512;Laerm;34054;52.100;5.116;2023-06-10T01:36:31;33.10;30.55;37.66;;
43512;Laerm;34054;52.100;5.116;2023-06-10T01:37:04;32.14;29.81;34.13;;
43512;Laerm;34054;52.100;5.116;2023-06-10T01:37:39;31.95;29.48;35.37;;
43512;Laerm;34054;52.100;5.116;2023-06-10T01:38:12;32.03;29.61;34.45;;
43512;Laerm;34054;52.100;5.116;2023-06-10T01:38:45;32.04;29.62;35.08;;
43512;Laerm;34054;52.100;5.116;2023-06-10T01:39:21;31.94;29.69;34.45;;
43512;Laerm;34054;52.100;5.116;2023-06-10T01:39:55;31.90;29.71;34.12;;
43512;Laerm;34054;52.100;5.116;2023-06-10T01:40:28;31.86;29.54;33.98;;
43512;Laerm;34054;52.100;5.116;2023-06-10T01:41:01;31.95;29.61;34.22;;
43512;Laerm;34054;52.100;5.116;2023-06-10T01:41:35;32.02;29.69;34.04;;
43512;Laerm;34054;52.100;5.116;2023-06-10T01:42:06;32.04;29.53;34.04;;
43512;Laerm;34054;52.100;5.116;2023-06-10T01:42:39;32.20;29.63;34.22;;
43512;Laerm;34054;52.100;5.116;2023-06-10T01:43:11;32.45;29.89;34.72;;
43512;Laerm;34054;52.100;5.116;2023-06-10T01:43:43;32.02;29.70;33.98;;
43512;Laerm;34054;52.100;5.116;2023-06-10T01:44:17;31.90;29.42;34.32;;
43512;Laerm;34054;52.100;5.116;2023-06-10T01:44:49;32.02;29.56;34.00;;
43512;Laerm;34054;52.100;5.116;2023-06-10T01:45:21;32.10;29.99;33.95;;
43512;Laerm;34054;52.100;5.116;2023-06-10T01:45:53;32.16;29.85;34.11;;
43512;Laerm;34054;52.100;5.116;2023-06-10T01:46:24;32.16;29.43;34.00;;
43512;Laerm;34054;52.100;5.116;2023-06-10T01:46:56;32.34;29.86;35.11;;
43512;Laerm;34054;52.100;5.116;2023-06-10T01:47:27;32.50;29.73;39.85;;
43512;Laerm;34054;52.100;5.116;2023-06-10T01:47:58;32.08;29.73;34.07;;
43512;Laerm;34054;52.100;5.116;2023-06-10T01:48:31;32.05;29.71;33.93;;
43512;Laerm;34054;52.100;5.116;2023-06-10T01:49:02;32.10;29.76;35.02;;
43512;Laerm;34054;52.100;5.116;2023-06-10T01:49:33;32.20;29.61;36.29;;
43512;Laerm;34054;52.100;5.116;2023-06-10T01:50:07;32.16;29.83;34.18;;
43512;Laerm;34054;52.100;5.116;2023-06-10T01:50:38;32.20;29.92;35.15;;
43512;Laerm;34054;52.100;5.116;2023-06-10T01:51:09;32.29;29.40;38.07;;
43512;Laerm;34054;52.100;5.116;2023-06-10T01:51:43;32.38;29.76;39.06;;
43512;Laerm;34054;52.100;5.116;2023-06-10T01:52:14;32.43;29.81;37.39;;
43512;Laerm;34054;52.100;5.116;2023-06-10T01:52:45;32.18;29.69;34.02;;
43512;Laerm;34054;52.100;5.116;2023-06-10T01:53:18;31.99;29.61;33.93;;
43512;Laerm;34054;52.100;5.116;2023-06-10T01:53:49;32.02;29.69;34.20;;
43512;Laerm;34054;52.100;5.116;2023-06-10T01:54:20;32.05;29.67;33.95;;
43512;Laerm;34054;52.100;5.116;2023-06-10T01:54:51;32.04;29.68;33.84;;
43512;Laerm;34054;52.100;5.116;2023-06-10T01:55:24;31.95;29.65;33.96;;
43512;Laerm;34054;52.100;5.116;2023-06-10T01:55:55;31.99;29.66;33.83;;
43512;Laerm;34054;52.100;5.116;2023-06-10T01:56:26;32.05;29.62;34.06;;
43512;Laerm;34054;52.100;5.116;2023-06-10T01:56:57;32.04;29.85;33.89;;
43512;Laerm;34054;52.100;5.116;2023-06-10T01:57:30;31.96;29.53;34.05;;
43512;Laerm;34054;52.100;5.116;2023-06-10T01:58:01;32.05;29.78;33.83;;
43512;Laerm;34054;52.100;5.116;2023-06-10T01:58:32;32.08;29.75;34.54;;
43512;Laerm;34054;52.100;5.116;2023-06-10T01:59:04;32.06;29.80;34.05;;
43512;Laerm;34054;52.100;5.116;2023-06-10T01:59:35;32.11;29.74;34.11;;
43512;Laerm;34054;52.100;5.116;2023-06-10T02:00:09;32.09;29.72;34.10;;
43512;Laerm;34054;52.100;5.116;2023-06-10T02:00:42;32.10;29.76;35.92;;
43512;Laerm;34054;52.100;5.116;2023-06-10T02:01:13;32.16;30.00;34.25;;
43512;Laerm;34054;52.100;5.116;2023-06-10T02:01:45;32.15;29.73;33.98;;
43512;Laerm;34054;52.100;5.116;2023-06-10T02:02:17;32.07;29.71;34.02;;
43512;Laerm;34054;52.100;5.116;2023-06-10T02:02:48;32.07;29.70;34.01;;
43512;Laerm;34054;52.100;5.116;2023-06-10T02:03:19;32.10;29.81;34.08;;
43512;Laerm;34054;52.100;5.116;2023-06-10T02:03:51;32.07;29.72;33.81;;
43512;Laerm;34054;52.100;5.116;2023-06-10T02:04:22;32.08;29.71;33.96;;
43512;Laerm;34054;52.100;5.116;2023-06-10T02:04:53;32.08;29.84;33.85;;
43512;Laerm;34054;52.100;5.116;2023-06-10T02:05:26;32.08;29.83;36.74;;
43512;Laerm;34054;52.100;5.116;2023-06-10T02:05:57;32.19;29.80;40.93;;
43512;Laerm;34054;52.100;5.116;2023-06-10T02:06:28;32.06;29.65;33.98;;
43512;Laerm;34054;52.100;5.116;2023-06-10T02:07:02;32.01;29.69;34.18;;
43512;Laerm;34054;52.100;5.116;2023-06-10T02:07:34;32.04;29.63;33.96;;
43512;Laerm;34054;52.100;5.116;2023-06-10T02:08:06;32.04;29.77;33.75;;
43512;Laerm;34054;52.100;5.116;2023-06-10T02:08:37;32.08;29.69;34.00;;
43512;Laerm;34054;52.100;5.116;2023-06-10T02:09:09;32.03;29.59;34.06;;
43512;Laerm;34054;52.100;5.116;2023-06-10T02:09:40;32.49;29.70;36.88;;
43512;Laerm;34054;52.100;5.116;2023-06-10T02:10:11;32.43;29.73;41.44;;
43512;Laerm;34054;52.100;5.116;2023-06-10T02:10:43;32.08;29.65;33.93;;
43512;Laerm;34054;52.100;5.116;2023-06-10T02:11:15;32.41;29.53;40.29;;
43512;Laerm;34054;52.100;5.116;2023-06-10T02:11:46;32.38;29.71;38.84;;
43512;Laerm;34054;52.100;5.116;2023-06-10T02:12:17;34.11;29.86;50.49;;
43512;Laerm;34054;52.100;5.116;2023-06-10T02:12:49;32.04;29.60;34.01;;
43512;Laerm;34054;52.100;5.116;2023-06-10T02:13:20;32.08;29.76;34.12;;
43512;Laerm;34054;52.100;5.116;2023-06-10T02:13:52;32.03;29.80;33.79;;
43512;Laerm;34054;52.100;5.116;2023-06-10T02:14:24;32.07;29.85;33.94;;
43512;Laerm;34054;52.100;5.116;2023-06-10T02:14:55;32.20;29.93;34.08;;
43512;Laerm;34054;52.100;5.116;2023-06-10T02:15:27;32.12;29.75;34.13;;
43512;Laerm;34054;52.100;5.116;2023-06-10T02:15:58;32.08;29.75;34.04;;
43512;Laerm;34054;52.100;5.116;2023-06-10T02:16:30;32.12;29.89;33.76;;
43512;Laerm;34054;52.100;5.116;2023-06-10T02:17:03;32.03;29.65;34.01;;
43512;Laerm;34054;52.100;5.116;2023-06-10T02:17:35;32.11;29.74;34.21;;
43512;Laerm;34054;52.100;5.116;2023-06-10T02:18:06;32.13;29.69;35.30;;
43512;Laerm;34054;52.100;5.116;2023-06-10T02:18:39;32.07;29.77;34.44;;
43512;Laerm;34054;52.100;5.116;2023-06-10T02:19:11;32.04;29.82;33.83;;
43512;Laerm;34054;52.100;5.116;2023-06-10T02:19:43;32.11;29.89;34.01;;
43512;Laerm;34054;52.100;5.116;2023-06-10T02:20:23;31.82;29.68;33.97;;
43512;Laerm;34054;52.100;5.116;2023-06-10T02:20:54;32.21;30.01;34.02;;
43512;Laerm;34054;52.100;5.116;2023-06-10T02:21:25;32.08;29.88;33.81;;
43512;Laerm;34054;52.100;5.116;2023-06-10T02:21:58;32.07;29.79;33.84;;
43512;Laerm;34054;52.100;5.116;2023-06-10T02:22:30;32.05;29.65;34.90;;
43512;Laerm;34054;52.100;5.116;2023-06-10T02:23:01;32.15;29.75;34.44;;
43512;Laerm;34054;52.100;5.116;2023-06-10T02:23:34;32.37;29.60;34.50;;
43512;Laerm;34054;52.100;5.116;2023-06-10T02:24:06;32.12;29.91;34.49;;
43512;Laerm;34054;52.100;5.116;2023-06-10T02:24:38;32.19;29.77;34.58;;
43512;Laerm;34054;52.100;5.116;2023-06-10T02:25:10;32.11;29.77;34.39;;
43512;Laerm;34054;52.100;5.116;2023-06-10T02:25:41;32.36;29.74;35.03;;
43512;Laerm;34054;52.100;5.116;2023-06-10T02:26:13;32.32;29.95;34.13;;
43512;Laerm;34054;52.100;5.116;2023-06-10T02:26:45;32.12;29.67;33.96;;
43512;Laerm;34054;52.100;5.116;2023-06-10T02:27:18;32.14;29.71;34.17;;
43512;Laerm;34054;52.100;5.116;2023-06-10T02:27:49;32.17;29.71;34.55;;
43512;Laerm;34054;52.100;5.116;2023-06-10T02:28:21;32.21;29.89;34.27;;
43512;Laerm;34054;52.100;5.116;2023-06-10T02:28:53;32.16;29.65;34.33;;
43512;Laerm;34054;52.100;5.116;2023-06-10T02:29:24;32.46;29.60;38.47;;
43512;Laerm;34054;52.100;5.116;2023-06-10T02:29:55;32.18;29.69;34.96;;
43512;Laerm;34054;52.100;5.116;2023-06-10T02:30:28;32.20;29.60;35.85;;
43512;Laerm;34054;52.100;5.116;2023-06-10T02:30:59;32.32;29.82;35.53;;
43512;Laerm;34054;52.100;5.116;2023-06-10T02:31:31;32.43;29.90;35.28;;
43512;Laerm;34054;52.100;5.116;2023-06-10T02:32:07;34.73;29.93;44.43;;
43512;Laerm;34054;52.100;5.116;2023-06-10T02:32:38;32.50;29.81;35.83;;
43512;Laerm;34054;52.100;5.116;2023-06-10T02:33:09;32.62;29.77;36.01;;
43512;Laerm;34054;52.100;5.116;2023-06-10T02:33:41;32.31;29.43;36.48;;
43512;Laerm;34054;52.100;5.116;2023-06-10T02:34:13;36.13;29.60;47.74;;
43512;Laerm;34054;52.100;5.116;2023-06-10T02:34:44;36.41;29.85;47.17;;
43512;Laerm;34054;52.100;5.116;2023-06-10T02:35:17;36.20;29.95;45.66;;
43512;Laerm;34054;52.100;5.116;2023-06-10T02:35:48;36.90;29.84;48.29;;
43512;Laerm;34054;52.100;5.116;2023-06-10T02:36:19;37.12;29.78;49.84;;
43512;Laerm;34054;52.100;5.116;2023-06-10T02:36:52;36.60;29.66;47.68;;
43512;Laerm;34054;52.100;5.116;2023-06-10T02:37:23;37.67;29.97;50.18;;
43512;Laerm;34054;52.100;5.116;2023-06-10T02:37:56;36.89;29.85;49.31;;
43512;Laerm;34054;52.100;5.116;2023-06-10T02:38:28;37.59;29.76;48.84;;
43512;Laerm;34054;52.100;5.116;2023-06-10T02:38:59;38.16;29.47;49.04;;
43512;Laerm;34054;52.100;5.116;2023-06-10T02:39:30;37.86;29.76;49.69;;
43512;Laerm;34054;52.100;5.116;2023-06-10T02:40:01;36.73;29.57;47.64;;
43512;Laerm;34054;52.100;5.116;2023-06-10T02:40:34;37.95;29.56;49.15;;
43512;Laerm;34054;52.100;5.116;2023-06-10T02:41:05;34.74;29.70;46.52;;
43512;Laerm;34054;52.100;5.116;2023-06-10T02:41:37;35.35;29.72;49.85;;
43512;Laerm;34054;52.100;5.116;2023-06-10T02:42:09;38.47;29.91;51.16;;
43512;Laerm;34054;52.100;5.116;2023-06-10T02:42:41;37.80;29.69;50.18;;
43512;Laerm;34054;52.100;5.116;2023-06-10T02:43:12;37.38;29.58;50.23;;
43512;Laerm;34054;52.100;5.116;2023-06-10T02:43:44;34.31;29.64;47.47;;
43512;Laerm;34054;52.100;5.116;2023-06-10T02:44:16;32.31;29.66;35.52;;
43512;Laerm;34054;52.100;5.116;2023-06-10T02:44:47;32.19;29.60;35.59;;
43512;Laerm;34054;52.100;5.116;2023-06-10T02:45:19;32.57;29.64;37.95;;
43512;Laerm;34054;52.100;5.116;2023-06-10T02:45:51;32.19;29.65;34.65;;
43512;Laerm;34054;52.100;5.116;2023-06-10T02:46:22;32.24;29.66;34.49;;
43512;Laerm;34054;52.100;5.116;2023-06-10T02:46:53;32.25;29.71;34.86;;
43512;Laerm;34054;52.100;5.116;2023-06-10T02:47:25;32.32;29.97;34.50;;
43512;Laerm;34054;52.100;5.116;2023-06-10T02:47:56;32.22;29.86;34.87;;
43512;Laerm;34054;52.100;5.116;2023-06-10T02:48:28;32.24;29.65;35.44;;
43512;Laerm;34054;52.100;5.116;2023-06-10T02:49:00;32.22;29.61;35.32;;
43512;Laerm;34054;52.100;5.116;2023-06-10T02:49:32;32.25;29.75;34.68;;
43512;Laerm;34054;52.100;5.116;2023-06-10T02:50:03;32.43;29.61;35.92;;
43512;Laerm;34054;52.100;5.116;2023-06-10T02:50:35;32.39;29.54;39.74;;
43512;Laerm;34054;52.100;5.116;2023-06-10T02:51:07;32.22;29.51;34.76;;
43512;Laerm;34054;52.100;5.116;2023-06-10T02:51:38;32.33;29.82;35.05;;
43512;Laerm;34054;52.100;5.116;2023-06-10T02:52:10;32.34;29.77;35.64;;
43512;Laerm;34054;52.100;5.116;2023-06-10T02:52:43;32.28;29.48;34.65;;
43512;Laerm;34054;52.100;5.116;2023-06-10T02:53:15;32.10;29.34;34.44;;
43512;Laerm;34054;52.100;5.116;2023-06-10T02:53:48;32.21;29.59;35.68;;
43512;Laerm;34054;52.100;5.116;2023-06-10T02:54:19;32.21;29.35;34.83;;
43512;Laerm;34054;52.100;5.116;2023-06-10T02:54:50;32.26;29.52;35.50;;
43512;Laerm;34054;52.100;5.116;2023-06-10T02:55:21;32.47;29.68;36.55;;
43512;Laerm;34054;52.100;5.116;2023-06-10T02:55:57;32.21;29.66;36.11;;
43512;Laerm;34054;52.100;5.116;2023-06-10T02:56:28;32.44;29.49;38.51;;
43512;Laerm;34054;52.100;5.116;2023-06-10T02:56:59;37.82;29.72;55.10;;
43512;Laerm;34054;52.100;5.116;2023-06-10T02:57:30;39.25;29.39;53.95;;
43512;Laerm;34054;52.100;5.116;2023-06-10T02:58:02;39.29;29.33;53.41;;
43512;Laerm;34054;52.100;5.116;2023-06-10T02:58:34;40.07;29.95;53.43;;
43512;Laerm;34054;52.100;5.116;2023-06-10T02:59:05;38.20;29.81;53.43;;
43512;Laerm;34054;52.100;5.116;2023-06-10T02:59:38;34.19;29.64;45.61;;
43512;Laerm;34054;52.100;5.116;2023-06-10T03:00:09;35.63;29.56;50.56;;
43512;Laerm;34054;52.100;5.116;2023-06-10T03:00:41;36.09;29.70;49.29;;
43512;Laerm;34054;52.100;5.116;2023-06-10T03:01:14;37.51;29.55;52.22;;
43512;Laerm;34054;52.100;5.116;2023-06-10T03:01:45;37.05;29.96;51.11;;